sensor_id;sensor_type;location;lat;lon;timestamp;P1;durP1;ratioP1;P2;durP2;ratioP2
63653;SDS011;49809;47.418;19.080;2023-06-22T00:00:24;9.70;;;3.83;;
63653;SDS011;49809;47.418;19.080;2023-06-22T00:04:15;5.62;;;3.47;;
63653;SDS011;49809;47.418;19.080;2023-06-22T00:11:46;7.70;;;3.60;;
63653;SDS011;49809;47.418;19.080;2023-06-22T00:15:43;6.00;;;3.83;;
63653;SDS011;49809;47.418;19.080;2023-06-22T00:23:23;5.62;;;3.50;;
63653;SDS011;49809;47.418;19.080;2023-06-22T00:30:41;6.25;;;3.17;;
63653;SDS011;49809;47.418;19.080;2023-06-22T00:34:20;8.32;;;3.90;;
63653;SDS011;49809;47.418;19.080;2023-06-22T00:37:55;8.98;;;3.65;;
63653;SDS011;49809;47.418;19.080;2023-06-22T00:45:05;7.65;;;3.70;;
63653;SDS011;49809;47.418;19.080;2023-06-22T00:48:59;7.50;;;3.85;;
63653;SDS011;49809;47.418;19.080;2023-06-22T00:52:28;7.87;;;3.90;;
63653;SDS011;49809;47.418;19.080;2023-06-22T00:56:12;8.13;;;3.90;;
63653;SDS011;49809;47.418;19.080;2023-06-22T01:00:10;6.75;;;3.47;;
63653;SDS011;49809;47.418;19.080;2023-06-22T01:04:07;11.57;;;3.90;;
63653;SDS011;49809;47.418;19.080;2023-06-22T01:07:58;8.40;;;3.95;;
63653;SDS011;49809;47.418;19.080;2023-06-22T01:11:52;8.63;;;4.07;;
63653;SDS011;49809;47.418;19.080;2023-06-22T01:15:51;8.85;;;4.30;;
63653;SDS011;49809;47.418;19.080;2023-06-22T01:19:59;8.05;;;4.50;;
63653;SDS011;49809;47.418;19.080;2023-06-22T01:35:39;7.20;;;3.95;;
63653;SDS011;49809;47.418;19.080;2023-06-22T01:43:10;8.88;;;4.15;;
63653;SDS011;49809;47.418;19.080;2023-06-22T01:46:45;7.37;;;4.22;;
63653;SDS011;49809;47.418;19.080;2023-06-22T01:50:24;8.32;;;4.07;;
63653;SDS011;49809;47.418;19.080;2023-06-22T01:54:05;6.65;;;3.90;;
63653;SDS011;49809;47.418;19.080;2023-06-22T01:57:40;9.18;;;3.87;;
63653;SDS011;49809;47.418;19.080;2023-06-22T02:04:55;7.37;;;3.78;;
63653;SDS011;49809;47.418;19.080;2023-06-22T02:08:54;8.38;;;4.15;;
63653;SDS011;49809;47.418;19.080;2023-06-22T02:12:35;7.35;;;3.95;;
63653;SDS011;49809;47.418;19.080;2023-06-22T02:16:15;9.15;;;3.80;;
63653;SDS011;49809;47.418;19.080;2023-06-22T02:19:44;11.30;;;4.55;;
63653;SDS011;49809;47.418;19.080;2023-06-22T02:23:33;8.60;;;4.50;;
63653;SDS011;49809;47.418;19.080;2023-06-22T02:27:14;8.13;;;4.25;;
63653;SDS011;49809;47.418;19.080;2023-06-22T02:30:53;6.43;;;3.80;;
63653;SDS011;49809;47.418;19.080;2023-06-22T02:34:32;5.80;;;4.30;;
63653;SDS011;49809;47.418;19.080;2023-06-22T02:42:25;11.95;;;4.85;;
63653;SDS011;49809;47.418;19.080;2023-06-22T02:46:50;9.52;;;4.57;;
63653;SDS011;49809;47.418;19.080;2023-06-22T02:57:48;9.75;;;4.43;;
63653;SDS011;49809;47.418;19.080;2023-06-22T03:01:30;6.45;;;4.07;;
63653;SDS011;49809;47.418;19.080;2023-06-22T03:05:24;7.70;;;3.97;;
63653;SDS011;49809;47.418;19.080;2023-06-22T03:09:02;8.75;;;4.87;;
63653;SDS011;49809;47.418;19.080;2023-06-22T03:13:08;8.80;;;4.40;;
63653;SDS011;49809;47.418;19.080;2023-06-22T03:16:47;7.93;;;4.53;;
63653;SDS011;49809;47.418;19.080;2023-06-22T03:20:25;10.98;;;4.82;;
63653;SDS011;49809;47.418;19.080;2023-06-22T03:28:09;11.20;;;4.03;;
63653;SDS011;49809;47.418;19.080;2023-06-22T03:39:08;10.93;;;4.80;;
63653;SDS011;49809;47.418;19.080;2023-06-22T03:42:47;11.70;;;5.00;;
63653;SDS011;49809;47.418;19.080;2023-06-22T03:50:16;7.82;;;4.50;;
63653;SDS011;49809;47.418;19.080;2023-06-22T03:53:48;8.25;;;4.50;;
63653;SDS011;49809;47.418;19.080;2023-06-22T03:57:18;9.68;;;4.45;;
63653;SDS011;49809;47.418;19.080;2023-06-22T04:04:57;9.75;;;5.12;;
63653;SDS011;49809;47.418;19.080;2023-06-22T04:17:01;10.70;;;5.05;;
63653;SDS011;49809;47.418;19.080;2023-06-22T04:20:56;7.50;;;4.72;;
63653;SDS011;49809;47.418;19.080;2023-06-22T04:28:14;10.00;;;5.18;;
63653;SDS011;49809;47.418;19.080;2023-06-22T04:35:30;9.10;;;5.03;;
63653;SDS011;49809;47.418;19.080;2023-06-22T04:42:56;10.68;;;6.60;;
63653;SDS011;49809;47.418;19.080;2023-06-22T04:46:37;11.20;;;6.10;;
63653;SDS011;49809;47.418;19.080;2023-06-22T04:50:18;10.45;;;5.60;;
63653;SDS011;49809;47.418;19.080;2023-06-22T04:53:59;11.90;;;5.80;;
63653;SDS011;49809;47.418;19.080;2023-06-22T04:57:39;10.48;;;5.30;;
63653;SDS011;49809;47.418;19.080;2023-06-22T05:01:16;9.90;;;5.60;;
63653;SDS011;49809;47.418;19.080;2023-06-22T05:05:41;7.93;;;4.90;;
63653;SDS011;49809;47.418;19.080;2023-06-22T05:14:09;8.85;;;5.10;;
63653;SDS011;49809;47.418;19.080;2023-06-22T05:17:49;10.68;;;4.35;;
63653;SDS011;49809;47.418;19.080;2023-06-22T05:21:38;14.13;;;4.47;;
63653;SDS011;49809;47.418;19.080;2023-06-22T05:25:01;10.35;;;4.65;;
63653;SDS011;49809;47.418;19.080;2023-06-22T05:28:23;13.05;;;5.43;;
63653;SDS011;49809;47.418;19.080;2023-06-22T05:31:52;11.15;;;5.43;;
63653;SDS011;49809;47.418;19.080;2023-06-22T05:35:32;9.95;;;4.80;;
63653;SDS011;49809;47.418;19.080;2023-06-22T05:39:10;9.48;;;4.47;;
63653;SDS011;49809;47.418;19.080;2023-06-22T05:42:42;8.23;;;4.20;;
63653;SDS011;49809;47.418;19.080;2023-06-22T05:45:47;11.38;;;4.28;;
63653;SDS011;49809;47.418;19.080;2023-06-22T05:49:23;12.35;;;4.10;;
63653;SDS011;49809;47.418;19.080;2023-06-22T05:52:51;7.47;;;4.53;;
63653;SDS011;49809;47.418;19.080;2023-06-22T05:55:59;8.82;;;3.47;;
63653;SDS011;49809;47.418;19.080;2023-06-22T05:59:03;7.15;;;3.05;;
63653;SDS011;49809;47.418;19.080;2023-06-22T06:02:06;7.95;;;3.45;;
63653;SDS011;49809;47.418;19.080;2023-06-22T06:05:11;8.82;;;3.22;;
63653;SDS011;49809;47.418;19.080;2023-06-22T06:08:33;7.30;;;3.33;;
63653;SDS011;49809;47.418;19.080;2023-06-22T06:11:38;9.43;;;3.97;;
63653;SDS011;49809;47.418;19.080;2023-06-22T06:14:41;5.57;;;3.12;;
63653;SDS011;49809;47.418;19.080;2023-06-22T06:17:45;8.55;;;3.42;;
63653;SDS011;49809;47.418;19.080;2023-06-22T06:21:09;10.57;;;2.83;;
63653;SDS011;49809;47.418;19.080;2023-06-22T06:24:16;6.72;;;3.45;;
63653;SDS011;49809;47.418;19.080;2023-06-22T06:27:19;5.75;;;3.40;;
63653;SDS011;49809;47.418;19.080;2023-06-22T06:30:23;8.55;;;2.70;;
63653;SDS011;49809;47.418;19.080;2023-06-22T06:33:27;7.82;;;3.67;;
63653;SDS011;49809;47.418;19.080;2023-06-22T06:36:30;5.68;;;2.95;;
63653;SDS011;49809;47.418;19.080;2023-06-22T06:39:35;6.40;;;3.12;;
63653;SDS011;49809;47.418;19.080;2023-06-22T06:43:02;10.73;;;2.78;;
63653;SDS011;49809;47.418;19.080;2023-06-22T06:46:05;3.62;;;2.30;;
63653;SDS011;49809;47.418;19.080;2023-06-22T06:49:09;4.72;;;2.62;;
63653;SDS011;49809;47.418;19.080;2023-06-22T06:52:13;7.93;;;2.45;;
63653;SDS011;49809;47.418;19.080;2023-06-22T06:55:22;4.82;;;2.20;;
63653;SDS011;49809;47.418;19.080;2023-06-22T06:58:28;4.15;;;2.25;;
63653;SDS011;49809;47.418;19.080;2023-06-22T07:02:13;4.53;;;2.30;;
63653;SDS011;49809;47.418;19.080;2023-06-22T07:05:25;4.20;;;2.42;;
63653;SDS011;49809;47.418;19.080;2023-06-22T07:08:38;4.20;;;2.22;;
63653;SDS011;49809;47.418;19.080;2023-06-22T07:11:44;7.40;;;2.45;;
63653;SDS011;49809;47.418;19.080;2023-06-22T07:14:47;5.62;;;2.33;;
63653;SDS011;49809;47.418;19.080;2023-06-22T07:17:50;5.90;;;2.62;;
63653;SDS011;49809;47.418;19.080;2023-06-22T07:20:58;7.07;;;2.80;;
63653;SDS011;49809;47.418;19.080;2023-06-22T07:24:33;8.52;;;2.65;;
63653;SDS011;49809;47.418;19.080;2023-06-22T07:28:00;7.40;;;2.35;;
63653;SDS011;49809;47.418;19.080;2023-06-22T07:31:10;3.80;;;2.35;;
63653;SDS011;49809;47.418;19.080;2023-06-22T07:34:43;5.85;;;2.60;;
63653;SDS011;49809;47.418;19.080;2023-06-22T07:37:47;7.22;;;2.70;;
63653;SDS011;49809;47.418;19.080;2023-06-22T07:41:05;7.87;;;2.95;;
63653;SDS011;49809;47.418;19.080;2023-06-22T07:44:48;5.25;;;2.75;;
63653;SDS011;49809;47.418;19.080;2023-06-22T07:47:53;8.27;;;3.05;;
63653;SDS011;49809;47.418;19.080;2023-06-22T07:51:20;4.30;;;3.25;;
63653;SDS011;49809;47.418;19.080;2023-06-22T07:58:18;8.20;;;3.53;;
63653;SDS011;49809;47.418;19.080;2023-06-22T08:01:56;6.53;;;3.40;;
63653;SDS011;49809;47.418;19.080;2023-06-22T08:05:23;5.30;;;3.22;;
63653;SDS011;49809;47.418;19.080;2023-06-22T08:09:06;7.72;;;4.32;;
63653;SDS011;49809;47.418;19.080;2023-06-22T08:16:01;4.85;;;4.12;;
63653;SDS011;49809;47.418;19.080;2023-06-22T08:24:43;8.23;;;4.20;;
63653;SDS011;49809;47.418;19.080;2023-06-22T08:32:56;6.85;;;3.85;;
63653;SDS011;49809;47.418;19.080;2023-06-22T12:10:10;5.35;;;4.70;;
63653;SDS011;49809;47.418;19.080;2023-06-22T12:14:08;6.97;;;4.37;;
63653;SDS011;49809;47.418;19.080;2023-06-22T12:35:58;4.62;;;4.18;;
63653;SDS011;49809;47.418;19.080;2023-06-22T12:49:01;6.57;;;4.70;;
63653;SDS011;49809;47.418;19.080;2023-06-22T12:53:24;4.80;;;4.32;;
63653;SDS011;49809;47.418;19.080;2023-06-22T13:05:39;5.57;;;4.53;;
63653;SDS011;49809;47.418;19.080;2023-06-22T13:09:17;6.32;;;4.70;;
63653;SDS011;49809;47.418;19.080;2023-06-22T13:13:05;5.45;;;4.70;;
63653;SDS011;49809;47.418;19.080;2023-06-22T13:16:21;7.32;;;5.00;;
63653;SDS011;49809;47.418;19.080;2023-06-22T13:19:50;6.93;;;4.90;;
63653;SDS011;49809;47.418;19.080;2023-06-22T13:23:28;6.68;;;4.87;;
63653;SDS011;49809;47.418;19.080;2023-06-22T13:26:52;7.20;;;5.12;;
63653;SDS011;49809;47.418;19.080;2023-06-22T13:29:56;5.32;;;4.53;;
63653;SDS011;49809;47.418;19.080;2023-06-22T13:33:02;12.07;;;5.30;;
63653;SDS011;49809;47.418;19.080;2023-06-22T13:36:06;6.32;;;4.70;;
63653;SDS011;49809;47.418;19.080;2023-06-22T13:39:15;6.40;;;5.25;;
63653;SDS011;49809;47.418;19.080;2023-06-22T13:42:20;6.50;;;4.95;;
63653;SDS011;49809;47.418;19.080;2023-06-22T13:45:24;6.68;;;5.32;;
63653;SDS011;49809;47.418;19.080;2023-06-22T13:48:29;8.00;;;4.97;;
63653;SDS011;49809;47.418;19.080;2023-06-22T13:51:39;8.38;;;5.05;;
63653;SDS011;49809;47.418;19.080;2023-06-22T13:58:22;7.40;;;4.72;;
63653;SDS011;49809;47.418;19.080;2023-06-22T14:01:59;7.00;;;5.12;;
63653;SDS011;49809;47.418;19.080;2023-06-22T14:05:28;8.05;;;4.93;;
63653;SDS011;49809;47.418;19.080;2023-06-22T14:08:35;7.20;;;4.55;;
63653;SDS011;49809;47.418;19.080;2023-06-22T14:12:04;8.13;;;4.70;;
63653;SDS011;49809;47.418;19.080;2023-06-22T14:15:40;7.80;;;5.00;;
63653;SDS011;49809;47.418;19.080;2023-06-22T14:19:25;11.48;;;5.60;;
63653;SDS011;49809;47.418;19.080;2023-06-22T14:22:46;9.00;;;4.87;;
63653;SDS011;49809;47.418;19.080;2023-06-22T14:26:25;6.53;;;4.70;;
63653;SDS011;49809;47.418;19.080;2023-06-22T14:29:47;7.10;;;5.05;;
63653;SDS011;49809;47.418;19.080;2023-06-22T14:32:51;5.85;;;5.07;;
63653;SDS011;49809;47.418;19.080;2023-06-22T14:36:42;7.97;;;4.78;;
63653;SDS011;49809;47.418;19.080;2023-06-22T14:40:13;6.75;;;5.03;;
63653;SDS011;49809;47.418;19.080;2023-06-22T14:43:35;9.38;;;5.00;;
63653;SDS011;49809;47.418;19.080;2023-06-22T14:47:10;8.15;;;5.12;;
63653;SDS011;49809;47.418;19.080;2023-06-22T14:50:39;6.50;;;5.03;;
63653;SDS011;49809;47.418;19.080;2023-06-22T14:54:42;10.10;;;5.32;;
63653;SDS011;49809;47.418;19.080;2023-06-22T14:58:35;6.90;;;5.10;;
63653;SDS011;49809;47.418;19.080;2023-06-22T15:02:14;8.98;;;5.10;;
63653;SDS011;49809;47.418;19.080;2023-06-22T15:06:02;8.48;;;5.28;;
63653;SDS011;49809;47.418;19.080;2023-06-22T15:09:25;6.35;;;4.62;;
63653;SDS011;49809;47.418;19.080;2023-06-22T15:13:07;8.60;;;4.95;;
63653;SDS011;49809;47.418;19.080;2023-06-22T15:17:06;10.25;;;4.72;;
63653;SDS011;49809;47.418;19.080;2023-06-22T15:20:39;5.68;;;4.60;;
63653;SDS011;49809;47.418;19.080;2023-06-22T15:28:05;7.22;;;4.53;;
63653;SDS011;49809;47.418;19.080;2023-06-22T15:31:43;7.80;;;5.35;;
63653;SDS011;49809;47.418;19.080;2023-06-22T15:38:58;7.68;;;5.25;;
63653;SDS011;49809;47.418;19.080;2023-06-22T15:42:33;9.13;;;4.62;;
63653;SDS011;49809;47.418;19.080;2023-06-22T15:46:09;8.95;;;5.15;;
63653;SDS011;49809;47.418;19.080;2023-06-22T15:49:39;5.37;;;4.25;;
63653;SDS011;49809;47.418;19.080;2023-06-22T15:52:56;6.22;;;4.78;;
63653;SDS011;49809;47.418;19.080;2023-06-22T15:56:27;7.05;;;4.97;;
63653;SDS011;49809;47.418;19.080;2023-06-22T15:59:54;8.48;;;4.80;;
63653;SDS011;49809;47.418;19.080;2023-06-22T16:03:14;6.68;;;4.57;;
63653;SDS011;49809;47.418;19.080;2023-06-22T16:06:54;14.45;;;5.10;;
63653;SDS011;49809;47.418;19.080;2023-06-22T16:10:22;6.60;;;4.90;;
63653;SDS011;49809;47.418;19.080;2023-06-22T16:13:40;6.43;;;4.50;;
63653;SDS011;49809;47.418;19.080;2023-06-22T16:17:16;8.63;;;4.82;;
63653;SDS011;49809;47.418;19.080;2023-06-22T16:20:37;8.00;;;4.87;;
63653;SDS011;49809;47.418;19.080;2023-06-22T16:24:10;5.78;;;4.82;;
63653;SDS011;49809;47.418;19.080;2023-06-22T16:27:46;7.62;;;4.35;;
63653;SDS011;49809;47.418;19.080;2023-06-22T16:31:25;9.27;;;5.20;;
63653;SDS011;49809;47.418;19.080;2023-06-22T16:35:09;9.18;;;5.43;;
63653;SDS011;49809;47.418;19.080;2023-06-22T16:38:34;7.55;;;5.12;;
63653;SDS011;49809;47.418;19.080;2023-06-22T16:42:05;8.48;;;5.28;;
63653;SDS011;49809;47.418;19.080;2023-06-22T16:45:38;6.50;;;4.80;;
63653;SDS011;49809;47.418;19.080;2023-06-22T16:49:12;12.82;;;5.82;;
63653;SDS011;49809;47.418;19.080;2023-06-22T16:52:46;9.98;;;5.18;;
63653;SDS011;49809;47.418;19.080;2023-06-22T16:56:27;6.75;;;5.07;;
63653;SDS011;49809;47.418;19.080;2023-06-22T17:00:00;8.75;;;5.30;;
63653;SDS011;49809;47.418;19.080;2023-06-22T17:03:48;6.20;;;5.03;;
63653;SDS011;49809;47.418;19.080;2023-06-22T17:07:53;9.68;;;5.57;;
63653;SDS011;49809;47.418;19.080;2023-06-22T17:11:31;9.45;;;5.50;;
63653;SDS011;49809;47.418;19.080;2023-06-22T17:15:03;8.35;;;5.95;;
63653;SDS011;49809;47.418;19.080;2023-06-22T17:18:22;11.55;;;5.43;;
63653;SDS011;49809;47.418;19.080;2023-06-22T17:21:57;6.53;;;5.12;;
63653;SDS011;49809;47.418;19.080;2023-06-22T17:25:24;10.20;;;5.72;;
63653;SDS011;49809;47.418;19.080;2023-06-22T17:28:51;10.07;;;5.45;;
63653;SDS011;49809;47.418;19.080;2023-06-22T17:32:36;12.65;;;5.85;;
63653;SDS011;49809;47.418;19.080;2023-06-22T17:36:11;10.27;;;5.62;;
63653;SDS011;49809;47.418;19.080;2023-06-22T17:39:31;12.05;;;5.90;;
63653;SDS011;49809;47.418;19.080;2023-06-22T17:42:50;10.75;;;5.75;;
63653;SDS011;49809;47.418;19.080;2023-06-22T17:46:33;8.65;;;5.53;;
63653;SDS011;49809;47.418;19.080;2023-06-22T17:50:03;10.95;;;5.72;;
63653;SDS011;49809;47.418;19.080;2023-06-22T17:53:31;8.55;;;5.18;;
63653;SDS011;49809;47.418;19.080;2023-06-22T17:56:52;12.30;;;5.60;;
63653;SDS011;49809;47.418;19.080;2023-06-22T17:59:58;6.93;;;5.53;;
63653;SDS011;49809;47.418;19.080;2023-06-22T18:03:17;8.75;;;5.75;;
63653;SDS011;49809;47.418;19.080;2023-06-22T18:06:57;6.97;;;5.20;;
63653;SDS011;49809;47.418;19.080;2023-06-22T18:10:22;7.25;;;5.70;;
63653;SDS011;49809;47.418;19.080;2023-06-22T18:14:02;8.27;;;5.28;;
63653;SDS011;49809;47.418;19.080;2023-06-22T18:17:35;13.35;;;5.82;;
63653;SDS011;49809;47.418;19.080;2023-06-22T18:21:04;11.57;;;6.35;;
63653;SDS011;49809;47.418;19.080;2023-06-22T18:24:29;8.82;;;5.57;;
63653;SDS011;49809;47.418;19.080;2023-06-22T18:28:13;9.07;;;6.00;;
63653;SDS011;49809;47.418;19.080;2023-06-22T18:31:50;9.40;;;6.22;;
63653;SDS011;49809;47.418;19.080;2023-06-22T18:35:23;8.88;;;6.20;;
63653;SDS011;49809;47.418;19.080;2023-06-22T18:38:55;9.80;;;6.32;;
63653;SDS011;49809;47.418;19.080;2023-06-22T18:42:29;10.27;;;5.80;;
63653;SDS011;49809;47.418;19.080;2023-06-22T18:45:50;9.02;;;6.50;;
63653;SDS011;49809;47.418;19.080;2023-06-22T18:49:12;10.35;;;6.70;;
63653;SDS011;49809;47.418;19.080;2023-06-22T18:52:34;12.90;;;6.78;;
63653;SDS011;49809;47.418;19.080;2023-06-22T18:56:10;11.23;;;6.55;;
63653;SDS011;49809;47.418;19.080;2023-06-22T19:00:02;14.18;;;6.60;;
63653;SDS011;49809;47.418;19.080;2023-06-22T19:03:56;11.18;;;6.12;;
63653;SDS011;49809;47.418;19.080;2023-06-22T19:07:20;8.85;;;6.30;;
63653;SDS011;49809;47.418;19.080;2023-06-22T19:11:19;10.18;;;6.53;;
63653;SDS011;49809;47.418;19.080;2023-06-22T19:15:11;9.95;;;6.30;;
63653;SDS011;49809;47.418;19.080;2023-06-22T19:26:11;13.93;;;7.10;;
63653;SDS011;49809;47.418;19.080;2023-06-22T19:29:47;11.25;;;6.15;;
63653;SDS011;49809;47.418;19.080;2023-06-22T19:33:26;16.48;;;6.47;;
63653;SDS011;49809;47.418;19.080;2023-06-22T19:36:54;9.07;;;6.65;;
63653;SDS011;49809;47.418;19.080;2023-06-22T19:40:27;12.23;;;6.53;;
63653;SDS011;49809;47.418;19.080;2023-06-22T19:44:05;11.95;;;7.40;;
63653;SDS011;49809;47.418;19.080;2023-06-22T19:47:25;9.38;;;6.78;;
63653;SDS011;49809;47.418;19.080;2023-06-22T19:50:46;9.43;;;6.40;;
63653;SDS011;49809;47.418;19.080;2023-06-22T19:54:08;13.32;;;6.72;;
63653;SDS011;49809;47.418;19.080;2023-06-22T19:57:33;12.88;;;7.15;;
63653;SDS011;49809;47.418;19.080;2023-06-22T20:01:05;8.43;;;7.05;;
63653;SDS011;49809;47.418;19.080;2023-06-22T20:04:40;10.05;;;7.28;;
63653;SDS011;49809;47.418;19.080;2023-06-22T20:08:05;10.68;;;7.43;;
63653;SDS011;49809;47.418;19.080;2023-06-22T20:11:09;10.77;;;6.82;;
63653;SDS011;49809;47.418;19.080;2023-06-22T20:14:19;12.02;;;7.68;;
63653;SDS011;49809;47.418;19.080;2023-06-22T20:17:25;12.18;;;7.43;;
63653;SDS011;49809;47.418;19.080;2023-06-22T20:20:59;10.02;;;6.95;;
63653;SDS011;49809;47.418;19.080;2023-06-22T20:24:06;11.77;;;7.30;;
63653;SDS011;49809;47.418;19.080;2023-06-22T20:31:42;13.80;;;6.90;;
63653;SDS011;49809;47.418;19.080;2023-06-22T20:34:49;10.90;;;6.57;;
63653;SDS011;49809;47.418;19.080;2023-06-22T20:37:57;9.25;;;7.28;;
63653;SDS011;49809;47.418;19.080;2023-06-22T20:41:34;10.27;;;6.95;;
63653;SDS011;49809;47.418;19.080;2023-06-22T20:44:39;11.63;;;7.87;;
63653;SDS011;49809;47.418;19.080;2023-06-22T20:47:42;10.25;;;6.85;;
63653;SDS011;49809;47.418;19.080;2023-06-22T20:50:46;11.90;;;7.45;;
63653;SDS011;49809;47.418;19.080;2023-06-22T20:54:10;11.05;;;7.45;;
63653;SDS011;49809;47.418;19.080;2023-06-22T20:57:22;10.32;;;7.37;;
63653;SDS011;49809;47.418;19.080;2023-06-22T21:01:04;10.48;;;6.93;;
63653;SDS011;49809;47.418;19.080;2023-06-22T21:04:10;10.07;;;7.07;;
63653;SDS011;49809;47.418;19.080;2023-06-22T21:07:16;10.95;;;6.87;;
63653;SDS011;49809;47.418;19.080;2023-06-22T21:10:21;8.60;;;6.97;;
63653;SDS011;49809;47.418;19.080;2023-06-22T21:13:25;12.75;;;7.85;;
63653;SDS011;49809;47.418;19.080;2023-06-22T21:16:31;8.98;;;7.05;;
63653;SDS011;49809;47.418;19.080;2023-06-22T21:19:35;12.82;;;7.75;;
63653;SDS011;49809;47.418;19.080;2023-06-22T21:22:40;11.00;;;7.35;;
63653;SDS011;49809;47.418;19.080;2023-06-22T21:25:47;11.77;;;7.15;;
63653;SDS011;49809;47.418;19.080;2023-06-22T21:29:13;10.10;;;7.50;;
63653;SDS011;49809;47.418;19.080;2023-06-22T21:32:16;9.45;;;7.40;;
63653;SDS011;49809;47.418;19.080;2023-06-22T21:35:21;10.27;;;7.12;;
63653;SDS011;49809;47.418;19.080;2023-06-22T21:38:27;11.38;;;7.87;;
63653;SDS011;49809;47.418;19.080;2023-06-22T21:41:33;11.10;;;7.43;;
63653;SDS011;49809;47.418;19.080;2023-06-22T21:44:40;12.25;;;7.65;;
63653;SDS011;49809;47.418;19.080;2023-06-22T21:47:45;10.57;;;7.50;;
63653;SDS011;49809;47.418;19.080;2023-06-22T21:51:07;13.70;;;7.97;;
63653;SDS011;49809;47.418;19.080;2023-06-22T21:54:15;11.35;;;7.87;;
63653;SDS011;49809;47.418;19.080;2023-06-22T21:57:20;10.23;;;7.32;;
63653;SDS011;49809;47.418;19.080;2023-06-22T22:00:37;13.13;;;7.80;;
63653;SDS011;49809;47.418;19.080;2023-06-22T22:03:47;13.43;;;7.95;;
63653;SDS011;49809;47.418;19.080;2023-06-22T22:07:19;10.23;;;7.93;;
63653;SDS011;49809;47.418;19.080;2023-06-22T22:10:29;11.50;;;7.72;;
63653;SDS011;49809;47.418;19.080;2023-06-22T22:13:52;11.73;;;7.97;;
63653;SDS011;49809;47.418;19.080;2023-06-22T22:17:02;11.85;;;8.48;;
63653;SDS011;49809;47.418;19.080;2023-06-22T22:20:16;9.80;;;7.62;;
63653;SDS011;49809;47.418;19.080;2023-06-22T22:23:25;10.70;;;7.87;;
63653;SDS011;49809;47.418;19.080;2023-06-22T22:26:36;12.32;;;8.38;;
63653;SDS011;49809;47.418;19.080;2023-06-22T22:29:44;10.82;;;8.18;;
63653;SDS011;49809;47.418;19.080;2023-06-22T22:32:48;15.75;;;8.48;;
63653;SDS011;49809;47.418;19.080;2023-06-22T22:36:00;11.25;;;7.87;;
63653;SDS011;49809;47.418;19.080;2023-06-22T22:39:09;11.60;;;7.90;;
63653;SDS011;49809;47.418;19.080;2023-06-22T22:42:13;12.73;;;7.90;;
63653;SDS011;49809;47.418;19.080;2023-06-22T22:45:16;10.52;;;8.18;;
63653;SDS011;49809;47.418;19.080;2023-06-22T22:48:22;9.87;;;7.90;;
63653;SDS011;49809;47.418;19.080;2023-06-22T22:51:26;12.27;;;8.68;;
63653;SDS011;49809;47.418;19.080;2023-06-22T22:54:33;10.48;;;8.02;;
63653;SDS011;49809;47.418;19.080;2023-06-22T22:57:40;17.33;;;8.52;;
63653;SDS011;49809;47.418;19.080;2023-06-22T23:00:43;11.18;;;8.15;;
63653;SDS011;49809;47.418;19.080;2023-06-22T23:03:47;10.40;;;8.32;;
63653;SDS011;49809;47.418;19.080;2023-06-22T23:06:52;10.77;;;7.95;;
63653;SDS011;49809;47.418;19.080;2023-06-22T23:09:57;13.30;;;8.98;;
63653;SDS011;49809;47.418;19.080;2023-06-22T23:13:05;13.38;;;8.60;;
63653;SDS011;49809;47.418;19.080;2023-06-22T23:16:08;12.63;;;7.95;;
63653;SDS011;49809;47.418;19.080;2023-06-22T23:19:16;11.75;;;8.65;;
63653;SDS011;49809;47.418;19.080;2023-06-22T23:22:20;13.32;;;8.73;;
63653;SDS011;49809;47.418;19.080;2023-06-22T23:25:25;9.88;;;8.20;;
63653;SDS011;49809;47.418;19.080;2023-06-22T23:28:32;10.30;;;8.93;;
63653;SDS011;49809;47.418;19.080;2023-06-22T23:31:40;12.30;;;8.40;;
63653;SDS011;49809;47.418;19.080;2023-06-22T23:34:45;10.15;;;8.38;;
63653;SDS011;49809;47.418;19.080;2023-06-22T23:37:52;18.92;;;8.90;;
63653;SDS011;49809;47.418;19.080;2023-06-22T23:41:00;13.82;;;9.32;;
63653;SDS011;49809;47.418;19.080;2023-06-22T23:44:04;11.07;;;8.23;;
63653;SDS011;49809;47.418;19.080;2023-06-22T23:47:09;12.43;;;8.30;;
63653;SDS011;49809;47.418;19.080;2023-06-22T23:50:13;12.23;;;8.63;;
63653;SDS011;49809;47.418;19.080;2023-06-22T23:53:17;10.20;;;8.45;;
63653;SDS011;49809;47.418;19.080;2023-06-22T23:56:22;11.57;;;7.87;;
63653;SDS011;49809;47.418;19.080;2023-06-22T23:59:29;11.23;;;8.70;;
